sensor_id;sensor_type;location;lat;lon;timestamp;P1;durP1;ratioP1;P2;durP2;ratioP2
6089;SDS011;3073;42.660;23.316;2022-10-16T00:00:46;18.40;;;10.23;;
6089;SDS011;3073;42.660;23.316;2022-10-16T00:03:13;21.63;;;10.00;;
6089;SDS011;3073;42.660;23.316;2022-10-16T00:05:40;17.90;;;10.03;;
6089;SDS011;3073;42.660;23.316;2022-10-16T00:08:09;14.40;;;8.60;;
6089;SDS011;3073;42.660;23.316;2022-10-16T00:10:39;16.27;;;9.10;;
6089;SDS011;3073;42.660;23.316;2022-10-16T00:13:08;16.83;;;8.73;;
6089;SDS011;3073;42.660;23.316;2022-10-16T00:15:35;15.30;;;9.30;;
6089;SDS011;3073;42.660;23.316;2022-10-16T00:18:02;14.93;;;8.13;;
6089;SDS011;3073;42.660;23.316;2022-10-16T00:20:33;16.80;;;9.47;;
6089;SDS011;3073;42.660;23.316;2022-10-16T00:23:02;18.43;;;8.40;;
6089;SDS011;3073;42.660;23.316;2022-10-16T00:25:29;16.17;;;9.40;;
6089;SDS011;3073;42.660;23.316;2022-10-16T00:27:57;15.10;;;8.67;;
6089;SDS011;3073;42.660;23.316;2022-10-16T00:30:26;15.83;;;8.17;;
6089;SDS011;3073;42.660;23.316;2022-10-16T00:32:54;56.90;;;37.50;;
6089;SDS011;3073;42.660;23.316;2022-10-16T00:35:20;69.63;;;43.10;;
6089;SDS011;3073;42.660;23.316;2022-10-16T00:37:47;73.00;;;44.37;;
6089;SDS011;3073;42.660;23.316;2022-10-16T00:40:14;59.77;;;38.47;;
6089;SDS011;3073;42.660;23.316;2022-10-16T00:42:41;56.50;;;38.40;;
6089;SDS011;3073;42.660;23.316;2022-10-16T00:45:08;73.47;;;43.80;;
6089;SDS011;3073;42.660;23.316;2022-10-16T00:47:38;55.47;;;36.77;;
6089;SDS011;3073;42.660;23.316;2022-10-16T00:50:08;70.27;;;39.97;;
6089;SDS011;3073;42.660;23.316;2022-10-16T00:52:39;75.93;;;44.83;;
6089;SDS011;3073;42.660;23.316;2022-10-16T00:55:09;61.00;;;40.17;;
6089;SDS011;3073;42.660;23.316;2022-10-16T00:57:37;55.17;;;33.50;;
6089;SDS011;3073;42.660;23.316;2022-10-16T01:00:04;46.30;;;28.30;;
6089;SDS011;3073;42.660;23.316;2022-10-16T01:02:34;50.20;;;31.23;;
6089;SDS011;3073;42.660;23.316;2022-10-16T01:05:02;63.67;;;36.90;;
6089;SDS011;3073;42.660;23.316;2022-10-16T01:07:34;57.37;;;36.10;;
6089;SDS011;3073;42.660;23.316;2022-10-16T01:10:10;53.60;;;34.30;;
6089;SDS011;3073;42.660;23.316;2022-10-16T01:12:44;55.00;;;33.53;;
6089;SDS011;3073;42.660;23.316;2022-10-16T01:15:17;70.10;;;36.93;;
6089;SDS011;3073;42.660;23.316;2022-10-16T01:17:51;58.10;;;37.93;;
6089;SDS011;3073;42.660;23.316;2022-10-16T01:20:27;59.93;;;38.57;;
6089;SDS011;3073;42.660;23.316;2022-10-16T01:22:59;76.37;;;45.33;;
6089;SDS011;3073;42.660;23.316;2022-10-16T01:25:37;70.03;;;42.47;;
6089;SDS011;3073;42.660;23.316;2022-10-16T01:28:25;59.20;;;33.40;;
6089;SDS011;3073;42.660;23.316;2022-10-16T01:30:59;50.63;;;29.10;;
6089;SDS011;3073;42.660;23.316;2022-10-16T01:33:28;46.47;;;28.37;;
6089;SDS011;3073;42.660;23.316;2022-10-16T01:36:02;23.77;;;14.80;;
6089;SDS011;3073;42.660;23.316;2022-10-16T01:38:36;42.77;;;25.60;;
6089;SDS011;3073;42.660;23.316;2022-10-16T01:41:06;39.83;;;21.57;;
6089;SDS011;3073;42.660;23.316;2022-10-16T01:43:39;25.00;;;14.97;;
6089;SDS011;3073;42.660;23.316;2022-10-16T01:46:10;17.47;;;9.47;;
6089;SDS011;3073;42.660;23.316;2022-10-16T01:48:40;18.63;;;9.70;;
6089;SDS011;3073;42.660;23.316;2022-10-16T01:51:08;16.37;;;11.10;;
6089;SDS011;3073;42.660;23.316;2022-10-16T01:53:37;17.10;;;10.43;;
6089;SDS011;3073;42.660;23.316;2022-10-16T01:56:07;20.37;;;11.30;;
6089;SDS011;3073;42.660;23.316;2022-10-16T01:58:36;26.83;;;18.10;;
6089;SDS011;3073;42.660;23.316;2022-10-16T02:01:08;32.63;;;19.50;;
6089;SDS011;3073;42.660;23.316;2022-10-16T02:03:37;32.53;;;21.07;;
6089;SDS011;3073;42.660;23.316;2022-10-16T02:06:06;36.53;;;22.63;;
6089;SDS011;3073;42.660;23.316;2022-10-16T02:08:33;33.83;;;21.10;;
6089;SDS011;3073;42.660;23.316;2022-10-16T02:11:02;38.63;;;21.47;;
6089;SDS011;3073;42.660;23.316;2022-10-16T02:13:29;29.97;;;20.17;;
6089;SDS011;3073;42.660;23.316;2022-10-16T02:16:01;33.30;;;21.00;;
6089;SDS011;3073;42.660;23.316;2022-10-16T02:18:28;21.43;;;14.40;;
6089;SDS011;3073;42.660;23.316;2022-10-16T02:20:57;24.20;;;14.20;;
6089;SDS011;3073;42.660;23.316;2022-10-16T02:23:28;22.80;;;14.27;;
6089;SDS011;3073;42.660;23.316;2022-10-16T02:26:01;20.07;;;11.20;;
6089;SDS011;3073;42.660;23.316;2022-10-16T02:28:31;15.43;;;9.83;;
6089;SDS011;3073;42.660;23.316;2022-10-16T02:31:07;15.90;;;9.30;;
6089;SDS011;3073;42.660;23.316;2022-10-16T02:33:38;14.10;;;8.10;;
6089;SDS011;3073;42.660;23.316;2022-10-16T02:36:08;14.63;;;8.70;;
6089;SDS011;3073;42.660;23.316;2022-10-16T02:38:36;15.77;;;8.60;;
6089;SDS011;3073;42.660;23.316;2022-10-16T02:41:04;15.70;;;8.67;;
6089;SDS011;3073;42.660;23.316;2022-10-16T02:43:31;13.40;;;7.67;;
6089;SDS011;3073;42.660;23.316;2022-10-16T02:45:58;13.80;;;8.70;;
6089;SDS011;3073;42.660;23.316;2022-10-16T02:48:27;15.70;;;9.07;;
6089;SDS011;3073;42.660;23.316;2022-10-16T02:50:53;14.77;;;9.23;;
6089;SDS011;3073;42.660;23.316;2022-10-16T02:53:20;13.50;;;7.73;;
6089;SDS011;3073;42.660;23.316;2022-10-16T02:55:47;20.47;;;8.10;;
6089;SDS011;3073;42.660;23.316;2022-10-16T02:58:13;17.80;;;8.43;;
6089;SDS011;3073;42.660;23.316;2022-10-16T03:00:40;13.80;;;8.30;;
6089;SDS011;3073;42.660;23.316;2022-10-16T03:03:08;16.10;;;8.53;;
6089;SDS011;3073;42.660;23.316;2022-10-16T03:05:36;18.13;;;10.07;;
6089;SDS011;3073;42.660;23.316;2022-10-16T03:08:03;16.07;;;9.80;;
6089;SDS011;3073;42.660;23.316;2022-10-16T03:10:30;18.37;;;10.50;;
6089;SDS011;3073;42.660;23.316;2022-10-16T03:12:56;16.20;;;10.47;;
6089;SDS011;3073;42.660;23.316;2022-10-16T03:15:23;17.27;;;9.90;;
6089;SDS011;3073;42.660;23.316;2022-10-16T03:17:51;19.20;;;10.73;;
6089;SDS011;3073;42.660;23.316;2022-10-16T03:20:17;18.27;;;10.67;;
6089;SDS011;3073;42.660;23.316;2022-10-16T03:22:45;21.80;;;9.77;;
6089;SDS011;3073;42.660;23.316;2022-10-16T03:25:12;14.47;;;9.20;;
6089;SDS011;3073;42.660;23.316;2022-10-16T03:27:39;17.10;;;10.40;;
6089;SDS011;3073;42.660;23.316;2022-10-16T03:30:06;20.17;;;10.67;;
6089;SDS011;3073;42.660;23.316;2022-10-16T03:32:34;13.30;;;9.10;;
6089;SDS011;3073;42.660;23.316;2022-10-16T03:35:01;19.17;;;9.60;;
6089;SDS011;3073;42.660;23.316;2022-10-16T03:37:29;16.70;;;9.97;;
6089;SDS011;3073;42.660;23.316;2022-10-16T03:39:57;14.77;;;8.53;;
6089;SDS011;3073;42.660;23.316;2022-10-16T03:42:24;17.57;;;9.17;;
6089;SDS011;3073;42.660;23.316;2022-10-16T03:44:51;19.53;;;9.60;;
6089;SDS011;3073;42.660;23.316;2022-10-16T03:47:18;18.83;;;8.97;;
6089;SDS011;3073;42.660;23.316;2022-10-16T03:49:46;16.70;;;9.37;;
6089;SDS011;3073;42.660;23.316;2022-10-16T03:52:13;14.83;;;8.20;;
6089;SDS011;3073;42.660;23.316;2022-10-16T03:54:40;13.07;;;8.53;;
6089;SDS011;3073;42.660;23.316;2022-10-16T03:57:08;16.63;;;9.30;;
6089;SDS011;3073;42.660;23.316;2022-10-16T03:59:35;17.70;;;10.57;;
6089;SDS011;3073;42.660;23.316;2022-10-16T04:02:02;12.70;;;8.93;;
6089;SDS011;3073;42.660;23.316;2022-10-16T04:04:29;14.50;;;9.70;;
6089;SDS011;3073;42.660;23.316;2022-10-16T04:06:56;16.10;;;9.50;;
6089;SDS011;3073;42.660;23.316;2022-10-16T04:09:22;15.00;;;9.00;;
6089;SDS011;3073;42.660;23.316;2022-10-16T04:11:49;21.60;;;10.90;;
6089;SDS011;3073;42.660;23.316;2022-10-16T04:14:17;17.63;;;11.27;;
6089;SDS011;3073;42.660;23.316;2022-10-16T04:16:44;20.33;;;13.00;;
6089;SDS011;3073;42.660;23.316;2022-10-16T04:19:11;19.73;;;11.73;;
6089;SDS011;3073;42.660;23.316;2022-10-16T04:21:38;18.40;;;10.80;;
6089;SDS011;3073;42.660;23.316;2022-10-16T04:24:05;39.40;;;19.67;;
6089;SDS011;3073;42.660;23.316;2022-10-16T04:26:32;49.83;;;27.50;;
6089;SDS011;3073;42.660;23.316;2022-10-16T04:28:59;19.13;;;9.37;;
6089;SDS011;3073;42.660;23.316;2022-10-16T04:31:27;15.43;;;10.23;;
6089;SDS011;3073;42.660;23.316;2022-10-16T04:33:54;23.53;;;11.43;;
6089;SDS011;3073;42.660;23.316;2022-10-16T04:36:21;19.53;;;11.50;;
6089;SDS011;3073;42.660;23.316;2022-10-16T04:38:48;20.07;;;10.47;;
6089;SDS011;3073;42.660;23.316;2022-10-16T04:41:15;17.07;;;10.10;;
6089;SDS011;3073;42.660;23.316;2022-10-16T04:43:41;21.37;;;10.33;;
6089;SDS011;3073;42.660;23.316;2022-10-16T04:46:08;13.77;;;9.73;;
6089;SDS011;3073;42.660;23.316;2022-10-16T04:48:36;21.40;;;10.30;;
6089;SDS011;3073;42.660;23.316;2022-10-16T04:51:03;15.93;;;9.70;;
6089;SDS011;3073;42.660;23.316;2022-10-16T04:53:30;15.60;;;10.40;;
6089;SDS011;3073;42.660;23.316;2022-10-16T04:55:58;18.43;;;11.60;;
6089;SDS011;3073;42.660;23.316;2022-10-16T04:58:25;17.87;;;10.63;;
6089;SDS011;3073;42.660;23.316;2022-10-16T05:00:51;19.67;;;12.57;;
6089;SDS011;3073;42.660;23.316;2022-10-16T05:03:18;18.80;;;11.27;;
6089;SDS011;3073;42.660;23.316;2022-10-16T05:05:46;17.33;;;10.77;;
6089;SDS011;3073;42.660;23.316;2022-10-16T05:08:14;17.17;;;9.47;;
6089;SDS011;3073;42.660;23.316;2022-10-16T05:10:42;19.63;;;10.93;;
6089;SDS011;3073;42.660;23.316;2022-10-16T05:13:10;20.63;;;10.57;;
6089;SDS011;3073;42.660;23.316;2022-10-16T05:15:37;23.47;;;10.90;;
6089;SDS011;3073;42.660;23.316;2022-10-16T05:18:04;16.90;;;10.80;;
6089;SDS011;3073;42.660;23.316;2022-10-16T05:20:31;19.17;;;11.93;;
6089;SDS011;3073;42.660;23.316;2022-10-16T05:22:59;20.50;;;11.83;;
6089;SDS011;3073;42.660;23.316;2022-10-16T05:25:26;22.03;;;12.17;;
6089;SDS011;3073;42.660;23.316;2022-10-16T05:27:53;19.27;;;11.90;;
6089;SDS011;3073;42.660;23.316;2022-10-16T05:30:20;15.47;;;9.60;;
6089;SDS011;3073;42.660;23.316;2022-10-16T05:32:47;31.37;;;13.67;;
6089;SDS011;3073;42.660;23.316;2022-10-16T05:35:15;18.30;;;11.53;;
6089;SDS011;3073;42.660;23.316;2022-10-16T05:37:42;27.27;;;11.70;;
6089;SDS011;3073;42.660;23.316;2022-10-16T05:40:11;20.20;;;11.90;;
6089;SDS011;3073;42.660;23.316;2022-10-16T05:42:38;17.53;;;10.40;;
6089;SDS011;3073;42.660;23.316;2022-10-16T05:45:06;15.87;;;9.57;;
6089;SDS011;3073;42.660;23.316;2022-10-16T05:47:34;18.87;;;11.37;;
6089;SDS011;3073;42.660;23.316;2022-10-16T05:50:01;22.47;;;9.90;;
6089;SDS011;3073;42.660;23.316;2022-10-16T05:52:29;16.90;;;10.47;;
6089;SDS011;3073;42.660;23.316;2022-10-16T05:54:56;20.53;;;11.67;;
6089;SDS011;3073;42.660;23.316;2022-10-16T05:57:24;16.60;;;10.93;;
6089;SDS011;3073;42.660;23.316;2022-10-16T05:59:51;19.30;;;10.90;;
6089;SDS011;3073;42.660;23.316;2022-10-16T06:02:18;20.10;;;9.57;;
6089;SDS011;3073;42.660;23.316;2022-10-16T06:04:44;18.90;;;9.77;;
6089;SDS011;3073;42.660;23.316;2022-10-16T06:07:11;14.33;;;9.00;;
6089;SDS011;3073;42.660;23.316;2022-10-16T06:09:38;15.30;;;10.10;;
6089;SDS011;3073;42.660;23.316;2022-10-16T06:12:05;14.73;;;9.13;;
6089;SDS011;3073;42.660;23.316;2022-10-16T06:14:33;14.77;;;9.93;;
6089;SDS011;3073;42.660;23.316;2022-10-16T06:17:00;24.37;;;10.83;;
6089;SDS011;3073;42.660;23.316;2022-10-16T06:19:27;18.23;;;10.90;;
6089;SDS011;3073;42.660;23.316;2022-10-16T06:21:53;17.50;;;10.10;;
6089;SDS011;3073;42.660;23.316;2022-10-16T06:24:23;14.80;;;10.27;;
6089;SDS011;3073;42.660;23.316;2022-10-16T06:26:49;15.10;;;10.80;;
6089;SDS011;3073;42.660;23.316;2022-10-16T06:29:16;19.73;;;10.90;;
6089;SDS011;3073;42.660;23.316;2022-10-16T06:31:52;13.30;;;8.17;;
6089;SDS011;3073;42.660;23.316;2022-10-16T06:34:19;11.83;;;7.70;;
6089;SDS011;3073;42.660;23.316;2022-10-16T06:36:46;17.30;;;7.50;;
6089;SDS011;3073;42.660;23.316;2022-10-16T06:39:12;13.60;;;7.07;;
6089;SDS011;3073;42.660;23.316;2022-10-16T06:41:39;12.93;;;7.33;;
6089;SDS011;3073;42.660;23.316;2022-10-16T06:44:06;9.63;;;7.10;;
6089;SDS011;3073;42.660;23.316;2022-10-16T06:46:33;12.20;;;6.90;;
6089;SDS011;3073;42.660;23.316;2022-10-16T06:49:02;14.13;;;6.80;;
6089;SDS011;3073;42.660;23.316;2022-10-16T06:51:28;11.20;;;7.57;;
6089;SDS011;3073;42.660;23.316;2022-10-16T06:53:57;13.67;;;7.03;;
6089;SDS011;3073;42.660;23.316;2022-10-16T06:56:25;12.83;;;7.50;;
6089;SDS011;3073;42.660;23.316;2022-10-16T06:58:53;10.33;;;7.03;;
6089;SDS011;3073;42.660;23.316;2022-10-16T07:01:20;13.70;;;6.60;;
6089;SDS011;3073;42.660;23.316;2022-10-16T07:03:48;10.13;;;6.77;;
6089;SDS011;3073;42.660;23.316;2022-10-16T07:06:17;9.40;;;6.70;;
6089;SDS011;3073;42.660;23.316;2022-10-16T07:08:47;9.33;;;7.20;;
6089;SDS011;3073;42.660;23.316;2022-10-16T07:11:15;12.20;;;6.67;;
6089;SDS011;3073;42.660;23.316;2022-10-16T07:13:43;10.90;;;6.27;;
6089;SDS011;3073;42.660;23.316;2022-10-16T07:16:12;10.80;;;6.43;;
6089;SDS011;3073;42.660;23.316;2022-10-16T07:18:41;10.00;;;5.90;;
6089;SDS011;3073;42.660;23.316;2022-10-16T07:21:11;10.33;;;6.40;;
6089;SDS011;3073;42.660;23.316;2022-10-16T07:23:40;11.97;;;6.17;;
6089;SDS011;3073;42.660;23.316;2022-10-16T07:26:08;7.20;;;5.40;;
6089;SDS011;3073;42.660;23.316;2022-10-16T07:28:35;23.33;;;7.47;;
6089;SDS011;3073;42.660;23.316;2022-10-16T07:31:03;8.60;;;6.10;;
6089;SDS011;3073;42.660;23.316;2022-10-16T07:33:30;15.87;;;7.43;;
6089;SDS011;3073;42.660;23.316;2022-10-16T07:35:57;9.83;;;6.60;;
6089;SDS011;3073;42.660;23.316;2022-10-16T07:38:24;13.97;;;7.57;;
6089;SDS011;3073;42.660;23.316;2022-10-16T07:40:57;13.63;;;8.17;;
6089;SDS011;3073;42.660;23.316;2022-10-16T07:43:24;10.40;;;6.37;;
6089;SDS011;3073;42.660;23.316;2022-10-16T07:45:51;11.70;;;6.80;;
6089;SDS011;3073;42.660;23.316;2022-10-16T07:48:18;9.27;;;6.60;;
6089;SDS011;3073;42.660;23.316;2022-10-16T07:50:45;9.13;;;6.60;;
6089;SDS011;3073;42.660;23.316;2022-10-16T07:53:12;17.03;;;8.07;;
6089;SDS011;3073;42.660;23.316;2022-10-16T07:55:39;18.07;;;7.87;;
6089;SDS011;3073;42.660;23.316;2022-10-16T07:58:08;11.63;;;7.90;;
6089;SDS011;3073;42.660;23.316;2022-10-16T08:00:35;14.80;;;8.33;;
6089;SDS011;3073;42.660;23.316;2022-10-16T08:03:03;13.40;;;7.93;;
6089;SDS011;3073;42.660;23.316;2022-10-16T08:05:30;18.00;;;8.60;;
6089;SDS011;3073;42.660;23.316;2022-10-16T08:07:59;16.00;;;8.40;;
6089;SDS011;3073;42.660;23.316;2022-10-16T08:10:26;15.80;;;8.70;;
6089;SDS011;3073;42.660;23.316;2022-10-16T08:12:54;10.70;;;7.30;;
6089;SDS011;3073;42.660;23.316;2022-10-16T08:15:22;13.20;;;7.70;;
6089;SDS011;3073;42.660;23.316;2022-10-16T08:17:56;14.40;;;7.30;;
6089;SDS011;3073;42.660;23.316;2022-10-16T08:20:24;9.50;;;7.33;;
6089;SDS011;3073;42.660;23.316;2022-10-16T08:22:51;12.20;;;8.47;;
6089;SDS011;3073;42.660;23.316;2022-10-16T08:25:19;11.70;;;7.00;;
6089;SDS011;3073;42.660;23.316;2022-10-16T08:27:46;10.93;;;6.50;;
6089;SDS011;3073;42.660;23.316;2022-10-16T08:30:13;11.23;;;6.50;;
6089;SDS011;3073;42.660;23.316;2022-10-16T08:32:42;11.80;;;6.23;;
6089;SDS011;3073;42.660;23.316;2022-10-16T08:35:09;10.90;;;6.53;;
6089;SDS011;3073;42.660;23.316;2022-10-16T08:37:37;13.07;;;6.07;;
6089;SDS011;3073;42.660;23.316;2022-10-16T08:40:06;10.70;;;6.80;;
6089;SDS011;3073;42.660;23.316;2022-10-16T08:42:44;10.67;;;5.73;;
6089;SDS011;3073;42.660;23.316;2022-10-16T08:45:28;16.67;;;5.40;;
6089;SDS011;3073;42.660;23.316;2022-10-16T08:48:07;9.80;;;5.97;;
6089;SDS011;3073;42.660;23.316;2022-10-16T08:50:43;7.67;;;5.57;;
6089;SDS011;3073;42.660;23.316;2022-10-16T08:53:11;7.87;;;5.13;;
6089;SDS011;3073;42.660;23.316;2022-10-16T08:55:43;6.80;;;5.40;;
6089;SDS011;3073;42.660;23.316;2022-10-16T08:58:13;13.77;;;5.33;;
6089;SDS011;3073;42.660;23.316;2022-10-16T09:00:42;8.37;;;4.50;;
6089;SDS011;3073;42.660;23.316;2022-10-16T09:03:16;8.70;;;5.17;;
6089;SDS011;3073;42.660;23.316;2022-10-16T09:08:52;6.60;;;4.10;;
6089;SDS011;3073;42.660;23.316;2022-10-16T09:11:31;5.83;;;4.07;;
6089;SDS011;3073;42.660;23.316;2022-10-16T09:14:15;5.45;;;3.70;;
6089;SDS011;3073;42.660;23.316;2022-10-16T09:16:53;6.35;;;4.03;;
6089;SDS011;3073;42.660;23.316;2022-10-16T09:19:29;9.40;;;4.93;;
6089;SDS011;3073;42.660;23.316;2022-10-16T09:22:08;4.90;;;3.80;;
6089;SDS011;3073;42.660;23.316;2022-10-16T09:24:40;4.80;;;3.55;;
6089;SDS011;3073;42.660;23.316;2022-10-16T09:27:08;6.80;;;4.07;;
6089;SDS011;3073;42.660;23.316;2022-10-16T09:29:37;8.37;;;4.40;;
6089;SDS011;3073;42.660;23.316;2022-10-16T09:32:09;5.20;;;3.70;;
6089;SDS011;3073;42.660;23.316;2022-10-16T09:34:41;6.00;;;3.77;;
6089;SDS011;3073;42.660;23.316;2022-10-16T09:37:10;10.10;;;4.50;;
6089;SDS011;3073;42.660;23.316;2022-10-16T09:39:44;6.20;;;4.20;;
6089;SDS011;3073;42.660;23.316;2022-10-16T09:42:11;5.80;;;3.37;;
6089;SDS011;3073;42.660;23.316;2022-10-16T09:44:42;7.07;;;4.07;;
6089;SDS011;3073;42.660;23.316;2022-10-16T09:47:15;8.70;;;4.60;;
6089;SDS011;3073;42.660;23.316;2022-10-16T09:49:53;8.60;;;4.30;;
6089;SDS011;3073;42.660;23.316;2022-10-16T09:52:22;6.40;;;3.57;;
6089;SDS011;3073;42.660;23.316;2022-10-16T09:54:50;3.97;;;3.28;;
6089;SDS011;3073;42.660;23.316;2022-10-16T09:57:19;5.80;;;3.27;;
6089;SDS011;3073;42.660;23.316;2022-10-16T09:59:47;4.57;;;3.50;;
6089;SDS011;3073;42.660;23.316;2022-10-16T10:02:15;6.30;;;3.03;;
6089;SDS011;3073;42.660;23.316;2022-10-16T10:04:45;4.37;;;2.97;;
6089;SDS011;3073;42.660;23.316;2022-10-16T10:07:18;7.07;;;4.57;;
6089;SDS011;3073;42.660;23.316;2022-10-16T10:09:49;5.60;;;3.67;;
6089;SDS011;3073;42.660;23.316;2022-10-16T10:12:17;9.73;;;3.70;;
6089;SDS011;3073;42.660;23.316;2022-10-16T10:14:46;4.40;;;3.53;;
6089;SDS011;3073;42.660;23.316;2022-10-16T10:17:16;6.77;;;3.27;;
6089;SDS011;3073;42.660;23.316;2022-10-16T10:19:46;6.23;;;3.20;;
6089;SDS011;3073;42.660;23.316;2022-10-16T10:22:30;6.43;;;3.40;;
6089;SDS011;3073;42.660;23.316;2022-10-16T10:25:00;5.20;;;3.40;;
6089;SDS011;3073;42.660;23.316;2022-10-16T10:27:39;4.63;;;2.67;;
6089;SDS011;3073;42.660;23.316;2022-10-16T10:30:15;5.80;;;3.20;;
6089;SDS011;3073;42.660;23.316;2022-10-16T10:32:48;10.95;;;6.05;;
6089;SDS011;3073;42.660;23.316;2022-10-16T10:35:27;12.65;;;5.47;;
6089;SDS011;3073;42.660;23.316;2022-10-16T10:38:05;24.48;;;9.90;;
6089;SDS011;3073;42.660;23.316;2022-10-16T10:40:45;133.40;;;46.67;;
6089;SDS011;3073;42.660;23.316;2022-10-16T10:43:21;72.35;;;25.45;;
6089;SDS011;3073;42.660;23.316;2022-10-16T10:45:58;25.70;;;11.88;;
6089;SDS011;3073;42.660;23.316;2022-10-16T10:48:38;30.50;;;13.88;;
6089;SDS011;3073;42.660;23.316;2022-10-16T10:51:19;6.65;;;3.95;;
6089;SDS011;3073;42.660;23.316;2022-10-16T10:53:58;4.53;;;3.00;;
6089;SDS011;3073;42.660;23.316;2022-10-16T10:56:41;7.93;;;3.38;;
6089;SDS011;3073;42.660;23.316;2022-10-16T10:59:24;5.03;;;2.97;;
6089;SDS011;3073;42.660;23.316;2022-10-16T11:02:14;4.85;;;3.33;;
6089;SDS011;3073;42.660;23.316;2022-10-16T11:08:00;7.03;;;3.60;;
6089;SDS011;3073;42.660;23.316;2022-10-16T11:10:33;4.95;;;2.80;;
6089;SDS011;3073;42.660;23.316;2022-10-16T11:13:09;6.70;;;3.22;;
6089;SDS011;3073;42.660;23.316;2022-10-16T11:15:43;3.35;;;2.72;;
6089;SDS011;3073;42.660;23.316;2022-10-16T11:18:16;6.38;;;3.08;;
6089;SDS011;3073;42.660;23.316;2022-10-16T11:20:47;4.53;;;2.80;;
6089;SDS011;3073;42.660;23.316;2022-10-16T11:23:18;6.78;;;2.85;;
6089;SDS011;3073;42.660;23.316;2022-10-16T11:25:53;7.20;;;2.70;;
6089;SDS011;3073;42.660;23.316;2022-10-16T11:28:23;3.50;;;2.22;;
6089;SDS011;3073;42.660;23.316;2022-10-16T11:30:56;6.50;;;4.38;;
6089;SDS011;3073;42.660;23.316;2022-10-16T11:33:27;5.55;;;4.18;;
6089;SDS011;3073;42.660;23.316;2022-10-16T11:36:03;3.60;;;2.58;;
6089;SDS011;3073;42.660;23.316;2022-10-16T11:38:37;5.03;;;2.85;;
6089;SDS011;3073;42.660;23.316;2022-10-16T11:41:12;6.57;;;2.90;;
6089;SDS011;3073;42.660;23.316;2022-10-16T11:43:48;4.40;;;2.88;;
6089;SDS011;3073;42.660;23.316;2022-10-16T11:46:24;2.75;;;2.30;;
6089;SDS011;3073;42.660;23.316;2022-10-16T11:48:55;4.80;;;2.33;;
6089;SDS011;3073;42.660;23.316;2022-10-16T11:51:29;3.20;;;2.20;;
6089;SDS011;3073;42.660;23.316;2022-10-16T11:54:03;3.47;;;2.05;;
6089;SDS011;3073;42.660;23.316;2022-10-16T11:56:37;3.10;;;2.03;;
6089;SDS011;3073;42.660;23.316;2022-10-16T11:59:07;4.30;;;2.35;;
6089;SDS011;3073;42.660;23.316;2022-10-16T12:01:46;5.57;;;2.70;;
6089;SDS011;3073;42.660;23.316;2022-10-16T12:04:20;3.57;;;2.50;;
6089;SDS011;3073;42.660;23.316;2022-10-16T12:06:53;5.03;;;3.07;;
6089;SDS011;3073;42.660;23.316;2022-10-16T12:09:25;4.20;;;2.90;;
6089;SDS011;3073;42.660;23.316;2022-10-16T12:11:56;4.87;;;3.20;;
6089;SDS011;3073;42.660;23.316;2022-10-16T12:14:35;3.30;;;2.40;;
6089;SDS011;3073;42.660;23.316;2022-10-16T12:19:57;3.33;;;2.53;;
6089;SDS011;3073;42.660;23.316;2022-10-16T12:22:26;3.72;;;2.58;;
6089;SDS011;3073;42.660;23.316;2022-10-16T12:24:55;3.08;;;2.25;;
6089;SDS011;3073;42.660;23.316;2022-10-16T12:27:25;11.05;;;3.22;;
6089;SDS011;3073;42.660;23.316;2022-10-16T12:29:55;3.60;;;2.38;;
6089;SDS011;3073;42.660;23.316;2022-10-16T12:32:27;4.88;;;2.45;;
6089;SDS011;3073;42.660;23.316;2022-10-16T12:34:59;5.88;;;2.65;;
6089;SDS011;3073;42.660;23.316;2022-10-16T12:37:28;3.78;;;2.70;;
6089;SDS011;3073;42.660;23.316;2022-10-16T12:40:23;2.53;;;2.33;;
6089;SDS011;3073;42.660;23.316;2022-10-16T12:42:54;5.82;;;3.17;;
6089;SDS011;3073;42.660;23.316;2022-10-16T12:45:26;6.55;;;3.53;;
6089;SDS011;3073;42.660;23.316;2022-10-16T12:47:56;4.07;;;2.60;;
6089;SDS011;3073;42.660;23.316;2022-10-16T12:50:25;5.30;;;3.20;;
6089;SDS011;3073;42.660;23.316;2022-10-16T12:52:55;3.95;;;2.80;;
6089;SDS011;3073;42.660;23.316;2022-10-16T12:55:23;6.05;;;2.97;;
6089;SDS011;3073;42.660;23.316;2022-10-16T12:58:03;4.30;;;2.78;;
6089;SDS011;3073;42.660;23.316;2022-10-16T13:00:41;3.88;;;2.50;;
6089;SDS011;3073;42.660;23.316;2022-10-16T13:03:24;5.82;;;2.78;;
6089;SDS011;3073;42.660;23.316;2022-10-16T13:06:06;3.92;;;2.70;;
6089;SDS011;3073;42.660;23.316;2022-10-16T13:08:45;3.55;;;2.90;;
6089;SDS011;3073;42.660;23.316;2022-10-16T13:11:35;7.75;;;2.60;;
6089;SDS011;3073;42.660;23.316;2022-10-16T13:14:21;6.05;;;3.20;;
6089;SDS011;3073;42.660;23.316;2022-10-16T13:17:04;4.00;;;3.38;;
6089;SDS011;3073;42.660;23.316;2022-10-16T13:19:39;3.45;;;2.95;;
6089;SDS011;3073;42.660;23.316;2022-10-16T13:22:13;5.30;;;3.35;;
6089;SDS011;3073;42.660;23.316;2022-10-16T13:24:51;3.08;;;2.58;;
6089;SDS011;3073;42.660;23.316;2022-10-16T13:27:30;3.83;;;2.50;;
6089;SDS011;3073;42.660;23.316;2022-10-16T13:30:11;3.20;;;2.30;;
6089;SDS011;3073;42.660;23.316;2022-10-16T13:32:43;2.88;;;2.25;;
6089;SDS011;3073;42.660;23.316;2022-10-16T13:35:21;4.65;;;3.40;;
6089;SDS011;3073;42.660;23.316;2022-10-16T13:37:50;3.35;;;2.45;;
6089;SDS011;3073;42.660;23.316;2022-10-16T13:40:18;4.32;;;2.60;;
6089;SDS011;3073;42.660;23.316;2022-10-16T13:42:47;4.72;;;3.10;;
6089;SDS011;3073;42.660;23.316;2022-10-16T13:45:19;3.42;;;2.50;;
6089;SDS011;3073;42.660;23.316;2022-10-16T13:47:47;4.18;;;2.70;;
6089;SDS011;3073;42.660;23.316;2022-10-16T13:50:15;5.85;;;3.05;;
6089;SDS011;3073;42.660;23.316;2022-10-16T13:52:44;8.68;;;3.08;;
6089;SDS011;3073;42.660;23.316;2022-10-16T13:55:11;9.35;;;2.42;;
6089;SDS011;3073;42.660;23.316;2022-10-16T13:57:39;3.85;;;2.70;;
6089;SDS011;3073;42.660;23.316;2022-10-16T14:00:21;6.57;;;3.28;;
6089;SDS011;3073;42.660;23.316;2022-10-16T14:02:50;5.03;;;2.60;;
6089;SDS011;3073;42.660;23.316;2022-10-16T14:05:21;3.90;;;2.70;;
6089;SDS011;3073;42.660;23.316;2022-10-16T14:07:49;3.22;;;2.45;;
6089;SDS011;3073;42.660;23.316;2022-10-16T14:10:22;5.25;;;2.83;;
6089;SDS011;3073;42.660;23.316;2022-10-16T14:12:55;6.57;;;2.80;;
6089;SDS011;3073;42.660;23.316;2022-10-16T14:15:25;6.18;;;2.38;;
6089;SDS011;3073;42.660;23.316;2022-10-16T14:17:52;5.15;;;2.88;;
6089;SDS011;3073;42.660;23.316;2022-10-16T14:20:20;5.50;;;2.55;;
6089;SDS011;3073;42.660;23.316;2022-10-16T14:22:59;5.88;;;3.10;;
6089;SDS011;3073;42.660;23.316;2022-10-16T14:25:28;4.75;;;3.28;;
6089;SDS011;3073;42.660;23.316;2022-10-16T14:27:58;4.80;;;2.80;;
6089;SDS011;3073;42.660;23.316;2022-10-16T14:30:28;3.55;;;2.30;;
6089;SDS011;3073;42.660;23.316;2022-10-16T14:32:56;4.20;;;3.20;;
6089;SDS011;3073;42.660;23.316;2022-10-16T14:35:25;3.20;;;2.47;;
6089;SDS011;3073;42.660;23.316;2022-10-16T14:37:54;4.05;;;2.55;;
6089;SDS011;3073;42.660;23.316;2022-10-16T14:40:23;4.47;;;2.70;;
6089;SDS011;3073;42.660;23.316;2022-10-16T14:42:51;5.50;;;2.73;;
6089;SDS011;3073;42.660;23.316;2022-10-16T14:45:20;10.57;;;2.80;;
6089;SDS011;3073;42.660;23.316;2022-10-16T14:47:50;4.60;;;2.70;;
6089;SDS011;3073;42.660;23.316;2022-10-16T14:50:19;3.40;;;2.50;;
6089;SDS011;3073;42.660;23.316;2022-10-16T14:52:46;3.13;;;2.30;;
6089;SDS011;3073;42.660;23.316;2022-10-16T14:55:13;6.30;;;2.97;;
6089;SDS011;3073;42.660;23.316;2022-10-16T14:57:42;9.53;;;3.60;;
6089;SDS011;3073;42.660;23.316;2022-10-16T15:00:13;6.93;;;3.27;;
6089;SDS011;3073;42.660;23.316;2022-10-16T15:02:43;4.57;;;2.40;;
6089;SDS011;3073;42.660;23.316;2022-10-16T15:05:13;5.17;;;2.77;;
6089;SDS011;3073;42.660;23.316;2022-10-16T15:07:42;4.90;;;2.50;;
6089;SDS011;3073;42.660;23.316;2022-10-16T15:10:10;4.60;;;2.77;;
6089;SDS011;3073;42.660;23.316;2022-10-16T15:12:40;4.77;;;3.00;;
6089;SDS011;3073;42.660;23.316;2022-10-16T15:15:21;4.33;;;3.20;;
6089;SDS011;3073;42.660;23.316;2022-10-16T15:17:54;5.27;;;2.63;;